sensor_id;sensor_type;location;lat;lon;timestamp;temperature;humidity
8736;DHT22;4404;49.308;12.178;2024-01-25T00:00:18;12.20;86.00
8736;DHT22;4404;49.308;12.178;2024-01-25T00:02:20;12.20;86.00
8736;DHT22;4404;49.308;12.178;2024-01-25T00:04:21;12.20;86.00
8736;DHT22;4404;49.308;12.178;2024-01-25T00:06:23;12.20;86.00
8736;DHT22;4404;49.308;12.178;2024-01-25T00:08:26;12.20;86.00
8736;DHT22;4404;49.308;12.178;2024-01-25T00:10:28;12.20;86.00
8736;DHT22;4404;49.308;12.178;2024-01-25T00:12:32;12.30;86.20
8736;DHT22;4404;49.308;12.178;2024-01-25T00:14:33;12.20;86.10
8736;DHT22;4404;49.308;12.178;2024-01-25T00:16:35;12.30;86.20
8736;DHT22;4404;49.308;12.178;2024-01-25T00:18:37;12.20;86.10
8736;DHT22;4404;49.308;12.178;2024-01-25T00:20:39;12.30;86.20
8736;DHT22;4404;49.308;12.178;2024-01-25T00:22:41;12.20;86.10
8736;DHT22;4404;49.308;12.178;2024-01-25T00:24:43;12.20;86.10
8736;DHT22;4404;49.308;12.178;2024-01-25T00:26:45;12.20;86.00
8736;DHT22;4404;49.308;12.178;2024-01-25T00:28:47;12.20;86.10
8736;DHT22;4404;49.308;12.178;2024-01-25T00:30:49;12.20;86.10
8736;DHT22;4404;49.308;12.178;2024-01-25T00:32:51;12.30;86.20
8736;DHT22;4404;49.308;12.178;2024-01-25T00:34:53;12.20;86.10
8736;DHT22;4404;49.308;12.178;2024-01-25T00:36:55;12.20;86.20
8736;DHT22;4404;49.308;12.178;2024-01-25T00:38:58;12.20;86.80
8736;DHT22;4404;49.308;12.178;2024-01-25T00:41:00;12.20;86.20
8736;DHT22;4404;49.308;12.178;2024-01-25T00:43:03;12.20;86.20
8736;DHT22;4404;49.308;12.178;2024-01-25T00:45:08;12.20;86.20
8736;DHT22;4404;49.308;12.178;2024-01-25T00:47:11;12.20;86.30
8736;DHT22;4404;49.308;12.178;2024-01-25T00:49:14;12.20;86.30
8736;DHT22;4404;49.308;12.178;2024-01-25T00:51:16;12.20;86.30
8736;DHT22;4404;49.308;12.178;2024-01-25T00:53:23;12.20;86.30
8736;DHT22;4404;49.308;12.178;2024-01-25T00:55:26;12.20;86.20
8736;DHT22;4404;49.308;12.178;2024-01-25T00:57:29;12.20;86.40
8736;DHT22;4404;49.308;12.178;2024-01-25T00:59:32;12.20;86.30
8736;DHT22;4404;49.308;12.178;2024-01-25T01:01:36;12.20;86.30
8736;DHT22;4404;49.308;12.178;2024-01-25T01:03:39;12.20;86.40
8736;DHT22;4404;49.308;12.178;2024-01-25T01:05:42;12.20;86.40
8736;DHT22;4404;49.308;12.178;2024-01-25T01:07:44;12.20;86.40
8736;DHT22;4404;49.308;12.178;2024-01-25T01:09:46;12.20;86.20
8736;DHT22;4404;49.308;12.178;2024-01-25T01:11:48;12.20;86.40
8736;DHT22;4404;49.308;12.178;2024-01-25T01:13:51;12.20;86.40
8736;DHT22;4404;49.308;12.178;2024-01-25T01:15:53;12.30;86.40
8736;DHT22;4404;49.308;12.178;2024-01-25T01:17:56;12.20;86.30
8736;DHT22;4404;49.308;12.178;2024-01-25T01:19:57;12.20;86.20
8736;DHT22;4404;49.308;12.178;2024-01-25T01:21:59;12.20;86.30
8736;DHT22;4404;49.308;12.178;2024-01-25T01:24:00;12.20;86.30
8736;DHT22;4404;49.308;12.178;2024-01-25T01:26:04;12.20;86.30
8736;DHT22;4404;49.308;12.178;2024-01-25T01:28:06;12.20;86.30
8736;DHT22;4404;49.308;12.178;2024-01-25T01:30:09;12.30;86.80
8736;DHT22;4404;49.308;12.178;2024-01-25T01:32:11;12.20;86.40
8736;DHT22;4404;49.308;12.178;2024-01-25T01:34:15;12.20;86.50
8736;DHT22;4404;49.308;12.178;2024-01-25T01:36:18;12.20;86.50
8736;DHT22;4404;49.308;12.178;2024-01-25T01:38:20;12.20;86.50
8736;DHT22;4404;49.308;12.178;2024-01-25T01:40:22;12.20;86.40
8736;DHT22;4404;49.308;12.178;2024-01-25T01:42:24;12.20;86.40
8736;DHT22;4404;49.308;12.178;2024-01-25T01:44:26;12.20;86.50
8736;DHT22;4404;49.308;12.178;2024-01-25T01:46:34;12.20;86.50
8736;DHT22;4404;49.308;12.178;2024-01-25T01:48:38;12.20;86.50
8736;DHT22;4404;49.308;12.178;2024-01-25T01:50:42;12.20;86.60
8736;DHT22;4404;49.308;12.178;2024-01-25T01:52:45;12.20;86.50
8736;DHT22;4404;49.308;12.178;2024-01-25T01:54:48;12.40;86.80
8736;DHT22;4404;49.308;12.178;2024-01-25T01:56:51;12.30;86.70
8736;DHT22;4404;49.308;12.178;2024-01-25T01:58:54;12.20;86.60
8736;DHT22;4404;49.308;12.178;2024-01-25T02:00:59;12.20;86.60
8736;DHT22;4404;49.308;12.178;2024-01-25T02:03:02;12.20;86.60
8736;DHT22;4404;49.308;12.178;2024-01-25T02:05:04;12.20;86.60
8736;DHT22;4404;49.308;12.178;2024-01-25T02:07:08;12.20;86.60
8736;DHT22;4404;49.308;12.178;2024-01-25T02:09:10;12.20;86.60
8736;DHT22;4404;49.308;12.178;2024-01-25T02:11:12;12.20;86.70
8736;DHT22;4404;49.308;12.178;2024-01-25T02:13:14;12.20;86.70
8736;DHT22;4404;49.308;12.178;2024-01-25T02:15:16;12.20;86.60
8736;DHT22;4404;49.308;12.178;2024-01-25T02:17:18;12.20;86.60
8736;DHT22;4404;49.308;12.178;2024-01-25T02:19:20;12.20;86.60
8736;DHT22;4404;49.308;12.178;2024-01-25T02:21:21;12.20;86.70
8736;DHT22;4404;49.308;12.178;2024-01-25T02:23:24;12.20;86.60
8736;DHT22;4404;49.308;12.178;2024-01-25T02:25:26;12.20;86.60
8736;DHT22;4404;49.308;12.178;2024-01-25T02:27:28;12.20;86.60
8736;DHT22;4404;49.308;12.178;2024-01-25T02:29:30;12.20;86.70
8736;DHT22;4404;49.308;12.178;2024-01-25T02:31:32;12.20;86.70
8736;DHT22;4404;49.308;12.178;2024-01-25T02:33:34;12.20;86.70
8736;DHT22;4404;49.308;12.178;2024-01-25T02:35:37;12.20;86.80
8736;DHT22;4404;49.308;12.178;2024-01-25T02:37:39;12.20;86.80
8736;DHT22;4404;49.308;12.178;2024-01-25T02:39:42;12.20;86.80
8736;DHT22;4404;49.308;12.178;2024-01-25T02:41:43;12.20;86.80
8736;DHT22;4404;49.308;12.178;2024-01-25T02:43:46;12.20;86.80
8736;DHT22;4404;49.308;12.178;2024-01-25T02:45:48;12.20;86.80
8736;DHT22;4404;49.308;12.178;2024-01-25T02:47:50;12.20;86.80
8736;DHT22;4404;49.308;12.178;2024-01-25T02:49:52;12.20;86.90
8736;DHT22;4404;49.308;12.178;2024-01-25T02:51:53;12.20;86.80
8736;DHT22;4404;49.308;12.178;2024-01-25T02:53:55;12.20;86.70
8736;DHT22;4404;49.308;12.178;2024-01-25T02:55:58;12.20;86.70
8736;DHT22;4404;49.308;12.178;2024-01-25T02:58:00;12.20;86.80
8736;DHT22;4404;49.308;12.178;2024-01-25T03:00:01;12.20;86.90
8736;DHT22;4404;49.308;12.178;2024-01-25T03:02:05;12.20;86.90
8736;DHT22;4404;49.308;12.178;2024-01-25T03:04:07;12.20;86.80
8736;DHT22;4404;49.308;12.178;2024-01-25T03:06:08;12.20;86.80
8736;DHT22;4404;49.308;12.178;2024-01-25T03:08:10;12.20;86.80
8736;DHT22;4404;49.308;12.178;2024-01-25T03:10:12;12.20;86.80
8736;DHT22;4404;49.308;12.178;2024-01-25T03:12:15;12.30;86.90
8736;DHT22;4404;49.308;12.178;2024-01-25T03:14:17;12.20;86.80
8736;DHT22;4404;49.308;12.178;2024-01-25T03:16:18;12.20;86.80
8736;DHT22;4404;49.308;12.178;2024-01-25T03:18:20;12.20;86.70
8736;DHT22;4404;49.308;12.178;2024-01-25T03:20:22;12.20;86.70
8736;DHT22;4404;49.308;12.178;2024-01-25T03:22:24;12.30;86.80
8736;DHT22;4404;49.308;12.178;2024-01-25T03:24:25;12.30;86.80
8736;DHT22;4404;49.308;12.178;2024-01-25T03:26:27;12.30;86.80
8736;DHT22;4404;49.308;12.178;2024-01-25T03:28:31;12.20;86.70
8736;DHT22;4404;49.308;12.178;2024-01-25T03:30:33;12.20;86.80
8736;DHT22;4404;49.308;12.178;2024-01-25T03:32:35;12.20;86.80
8736;DHT22;4404;49.308;12.178;2024-01-25T03:34:37;12.20;86.80
8736;DHT22;4404;49.308;12.178;2024-01-25T03:36:39;12.20;86.80
8736;DHT22;4404;49.308;12.178;2024-01-25T03:38:42;12.20;86.80
8736;DHT22;4404;49.308;12.178;2024-01-25T03:40:44;12.20;86.60
8736;DHT22;4404;49.308;12.178;2024-01-25T03:42:46;12.20;86.70
8736;DHT22;4404;49.308;12.178;2024-01-25T03:44:50;12.20;86.70
8736;DHT22;4404;49.308;12.178;2024-01-25T03:46:52;12.20;86.80
8736;DHT22;4404;49.308;12.178;2024-01-25T03:48:54;12.20;86.70
8736;DHT22;4404;49.308;12.178;2024-01-25T03:50:56;12.20;86.80
8736;DHT22;4404;49.308;12.178;2024-01-25T03:52:58;12.20;86.70
8736;DHT22;4404;49.308;12.178;2024-01-25T03:55:00;12.20;86.80
8736;DHT22;4404;49.308;12.178;2024-01-25T03:57:02;12.20;86.90
8736;DHT22;4404;49.308;12.178;2024-01-25T03:59:04;12.20;86.90
8736;DHT22;4404;49.308;12.178;2024-01-25T04:01:12;12.20;86.90
8736;DHT22;4404;49.308;12.178;2024-01-25T04:03:14;12.20;86.80
8736;DHT22;4404;49.308;12.178;2024-01-25T04:05:15;12.20;86.80
8736;DHT22;4404;49.308;12.178;2024-01-25T04:07:17;12.20;86.80
8736;DHT22;4404;49.308;12.178;2024-01-25T04:09:19;12.20;86.70
8736;DHT22;4404;49.308;12.178;2024-01-25T04:11:21;12.20;86.70
8736;DHT22;4404;49.308;12.178;2024-01-25T04:13:23;12.20;86.70
8736;DHT22;4404;49.308;12.178;2024-01-25T04:15:25;12.20;86.80
8736;DHT22;4404;49.308;12.178;2024-01-25T04:17:28;12.20;87.50
8736;DHT22;4404;49.308;12.178;2024-01-25T04:19:30;12.20;86.80
8736;DHT22;4404;49.308;12.178;2024-01-25T04:21:32;12.10;86.60
8736;DHT22;4404;49.308;12.178;2024-01-25T04:23:34;12.20;86.70
8736;DHT22;4404;49.308;12.178;2024-01-25T04:25:36;12.20;86.60
8736;DHT22;4404;49.308;12.178;2024-01-25T04:27:38;12.20;86.60
8736;DHT22;4404;49.308;12.178;2024-01-25T04:29:39;12.20;86.60
8736;DHT22;4404;49.308;12.178;2024-01-25T04:31:43;12.20;86.70
8736;DHT22;4404;49.308;12.178;2024-01-25T04:33:46;12.20;86.70
8736;DHT22;4404;49.308;12.178;2024-01-25T04:35:48;12.20;86.80
8736;DHT22;4404;49.308;12.178;2024-01-25T04:37:50;12.20;86.80
8736;DHT22;4404;49.308;12.178;2024-01-25T04:39:52;12.20;86.70
8736;DHT22;4404;49.308;12.178;2024-01-25T04:41:54;12.20;86.80
8736;DHT22;4404;49.308;12.178;2024-01-25T04:43:56;12.20;86.70
8736;DHT22;4404;49.308;12.178;2024-01-25T04:45:57;12.20;86.80
8736;DHT22;4404;49.308;12.178;2024-01-25T04:47:59;12.20;86.80
8736;DHT22;4404;49.308;12.178;2024-01-25T04:50:02;12.20;86.80
8736;DHT22;4404;49.308;12.178;2024-01-25T04:52:04;12.20;86.80
8736;DHT22;4404;49.308;12.178;2024-01-25T04:54:07;12.20;86.80
8736;DHT22;4404;49.308;12.178;2024-01-25T04:56:13;12.10;86.70
8736;DHT22;4404;49.308;12.178;2024-01-25T04:58:15;12.20;87.00
8736;DHT22;4404;49.308;12.178;2024-01-25T05:00:17;12.20;87.10
8736;DHT22;4404;49.308;12.178;2024-01-25T05:02:19;12.20;87.20
8736;DHT22;4404;49.308;12.178;2024-01-25T05:04:21;12.20;87.20
8736;DHT22;4404;49.308;12.178;2024-01-25T05:06:25;12.20;87.20
8736;DHT22;4404;49.308;12.178;2024-01-25T05:08:27;12.40;87.40
8736;DHT22;4404;49.308;12.178;2024-01-25T05:10:29;12.20;87.20
8736;DHT22;4404;49.308;12.178;2024-01-25T05:12:31;12.20;87.30
8736;DHT22;4404;49.308;12.178;2024-01-25T05:14:33;12.20;87.30
8736;DHT22;4404;49.308;12.178;2024-01-25T05:16:35;12.10;87.20
8736;DHT22;4404;49.308;12.178;2024-01-25T05:18:37;12.20;87.30
8736;DHT22;4404;49.308;12.178;2024-01-25T05:20:39;12.20;87.40
8736;DHT22;4404;49.308;12.178;2024-01-25T05:22:42;12.20;87.40
8736;DHT22;4404;49.308;12.178;2024-01-25T05:24:46;12.10;87.30
8736;DHT22;4404;49.308;12.178;2024-01-25T05:26:48;12.20;87.40
8736;DHT22;4404;49.308;12.178;2024-01-25T05:28:50;12.20;87.40
8736;DHT22;4404;49.308;12.178;2024-01-25T05:30:52;12.20;87.40
8736;DHT22;4404;49.308;12.178;2024-01-25T05:32:54;12.10;87.30
8736;DHT22;4404;49.308;12.178;2024-01-25T05:34:56;12.20;87.40
8736;DHT22;4404;49.308;12.178;2024-01-25T05:36:57;12.20;87.50
8736;DHT22;4404;49.308;12.178;2024-01-25T05:39:00;12.20;87.50
8736;DHT22;4404;49.308;12.178;2024-01-25T05:41:06;12.30;87.50
8736;DHT22;4404;49.308;12.178;2024-01-25T05:43:08;12.30;87.50
8736;DHT22;4404;49.308;12.178;2024-01-25T05:45:10;12.20;87.40
8736;DHT22;4404;49.308;12.178;2024-01-25T05:47:12;12.10;87.30
8736;DHT22;4404;49.308;12.178;2024-01-25T05:49:14;12.10;87.30
8736;DHT22;4404;49.308;12.178;2024-01-25T05:51:17;12.20;87.40
8736;DHT22;4404;49.308;12.178;2024-01-25T05:53:19;12.10;87.30
8736;DHT22;4404;49.308;12.178;2024-01-25T05:55:23;12.10;87.30
8736;DHT22;4404;49.308;12.178;2024-01-25T05:57:25;12.20;87.40
8736;DHT22;4404;49.308;12.178;2024-01-25T05:59:28;12.10;87.20
8736;DHT22;4404;49.308;12.178;2024-01-25T06:01:30;12.20;87.20
8736;DHT22;4404;49.308;12.178;2024-01-25T06:03:32;12.10;87.20
8736;DHT22;4404;49.308;12.178;2024-01-25T06:05:34;12.10;87.20
8736;DHT22;4404;49.308;12.178;2024-01-25T06:07:36;12.20;87.20
8736;DHT22;4404;49.308;12.178;2024-01-25T06:09:38;12.10;87.00
8736;DHT22;4404;49.308;12.178;2024-01-25T06:11:41;12.10;86.90
8736;DHT22;4404;49.308;12.178;2024-01-25T06:13:43;12.10;87.00
8736;DHT22;4404;49.308;12.178;2024-01-25T06:15:45;12.20;87.10
8736;DHT22;4404;49.308;12.178;2024-01-25T06:17:47;12.10;87.00
8736;DHT22;4404;49.308;12.178;2024-01-25T06:19:49;12.10;87.00
8736;DHT22;4404;49.308;12.178;2024-01-25T06:21:51;12.10;87.00
8736;DHT22;4404;49.308;12.178;2024-01-25T06:23:53;12.10;87.00
8736;DHT22;4404;49.308;12.178;2024-01-25T06:25:55;12.00;86.80
8736;DHT22;4404;49.308;12.178;2024-01-25T06:27:58;12.10;87.00
8736;DHT22;4404;49.308;12.178;2024-01-25T06:30:01;12.00;86.80
8736;DHT22;4404;49.308;12.178;2024-01-25T06:32:03;12.10;86.80
8736;DHT22;4404;49.308;12.178;2024-01-25T06:34:06;12.10;86.60
8736;DHT22;4404;49.308;12.178;2024-01-25T06:36:08;12.10;86.50
8736;DHT22;4404;49.308;12.178;2024-01-25T06:38:10;12.10;86.50
8736;DHT22;4404;49.308;12.178;2024-01-25T06:40:12;12.10;86.30
8736;DHT22;4404;49.308;12.178;2024-01-25T06:42:14;12.10;86.30
8736;DHT22;4404;49.308;12.178;2024-01-25T06:44:16;12.10;86.20
8736;DHT22;4404;49.308;12.178;2024-01-25T06:46:19;12.10;86.20
8736;DHT22;4404;49.308;12.178;2024-01-25T06:48:21;12.20;86.30
8736;DHT22;4404;49.308;12.178;2024-01-25T06:50:23;12.10;86.20
8736;DHT22;4404;49.308;12.178;2024-01-25T06:52:25;12.10;86.10
8736;DHT22;4404;49.308;12.178;2024-01-25T06:54:27;12.10;86.00
8736;DHT22;4404;49.308;12.178;2024-01-25T06:56:29;12.10;86.00
8736;DHT22;4404;49.308;12.178;2024-01-25T06:58:31;12.10;86.00
8736;DHT22;4404;49.308;12.178;2024-01-25T07:00:35;12.10;86.00
8736;DHT22;4404;49.308;12.178;2024-01-25T07:02:38;12.10;86.00
8736;DHT22;4404;49.308;12.178;2024-01-25T07:04:40;12.10;86.00
8736;DHT22;4404;49.308;12.178;2024-01-25T07:06:42;12.10;85.90
8736;DHT22;4404;49.308;12.178;2024-01-25T07:08:45;12.00;85.80
8736;DHT22;4404;49.308;12.178;2024-01-25T07:10:47;12.10;85.90
8736;DHT22;4404;49.308;12.178;2024-01-25T07:12:49;12.10;86.00
8736;DHT22;4404;49.308;12.178;2024-01-25T07:14:51;12.10;86.00
8736;DHT22;4404;49.308;12.178;2024-01-25T07:16:54;12.10;86.00
8736;DHT22;4404;49.308;12.178;2024-01-25T07:18:56;12.10;85.90
8736;DHT22;4404;49.308;12.178;2024-01-25T07:20:58;12.10;85.90
8736;DHT22;4404;49.308;12.178;2024-01-25T07:23:00;12.10;85.90
8736;DHT22;4404;49.308;12.178;2024-01-25T07:25:03;12.10;85.90
8736;DHT22;4404;49.308;12.178;2024-01-25T07:27:06;12.00;85.80
8736;DHT22;4404;49.308;12.178;2024-01-25T07:29:08;12.10;85.70
8736;DHT22;4404;49.308;12.178;2024-01-25T07:31:10;12.10;85.80
8736;DHT22;4404;49.308;12.178;2024-01-25T07:33:13;12.00;85.70
8736;DHT22;4404;49.308;12.178;2024-01-25T07:35:15;12.10;85.60
8736;DHT22;4404;49.308;12.178;2024-01-25T07:37:18;12.00;85.60
8736;DHT22;4404;49.308;12.178;2024-01-25T07:39:19;12.10;86.00
8736;DHT22;4404;49.308;12.178;2024-01-25T07:41:21;12.00;86.00
8736;DHT22;4404;49.308;12.178;2024-01-25T07:43:23;12.00;85.90
8736;DHT22;4404;49.308;12.178;2024-01-25T07:45:25;12.00;85.70
8736;DHT22;4404;49.308;12.178;2024-01-25T07:47:27;12.00;85.70
8736;DHT22;4404;49.308;12.178;2024-01-25T07:49:31;12.10;85.80
8736;DHT22;4404;49.308;12.178;2024-01-25T07:51:33;12.00;85.60
8736;DHT22;4404;49.308;12.178;2024-01-25T07:53:35;12.00;85.60
8736;DHT22;4404;49.308;12.178;2024-01-25T07:55:37;12.00;85.60
8736;DHT22;4404;49.308;12.178;2024-01-25T07:57:40;12.00;85.70
8736;DHT22;4404;49.308;12.178;2024-01-25T07:59:42;12.10;85.70
8736;DHT22;4404;49.308;12.178;2024-01-25T08:01:44;12.10;85.70
8736;DHT22;4404;49.308;12.178;2024-01-25T08:03:46;12.10;85.80
8736;DHT22;4404;49.308;12.178;2024-01-25T08:05:49;12.10;85.80
8736;DHT22;4404;49.308;12.178;2024-01-25T08:07:54;12.10;85.90
8736;DHT22;4404;49.308;12.178;2024-01-25T08:10:00;12.10;85.80
8736;DHT22;4404;49.308;12.178;2024-01-25T08:12:03;12.10;85.80
8736;DHT22;4404;49.308;12.178;2024-01-25T08:14:05;12.10;85.80
8736;DHT22;4404;49.308;12.178;2024-01-25T08:16:09;12.10;85.80
8736;DHT22;4404;49.308;12.178;2024-01-25T08:18:12;12.10;85.80
8736;DHT22;4404;49.308;12.178;2024-01-25T08:20:14;12.10;85.80
8736;DHT22;4404;49.308;12.178;2024-01-25T08:22:18;12.10;85.80
8736;DHT22;4404;49.308;12.178;2024-01-25T08:24:20;12.10;86.50
8736;DHT22;4404;49.308;12.178;2024-01-25T08:26:23;12.10;85.80
8736;DHT22;4404;49.308;12.178;2024-01-25T08:28:31;12.10;85.80
8736;DHT22;4404;49.308;12.178;2024-01-25T08:30:33;12.20;85.80
8736;DHT22;4404;49.308;12.178;2024-01-25T08:32:35;12.10;85.80
8736;DHT22;4404;49.308;12.178;2024-01-25T08:34:40;12.10;85.80
8736;DHT22;4404;49.308;12.178;2024-01-25T08:36:43;12.10;85.70
8736;DHT22;4404;49.308;12.178;2024-01-25T08:38:46;12.10;85.80
8736;DHT22;4404;49.308;12.178;2024-01-25T08:40:48;12.10;85.70
8736;DHT22;4404;49.308;12.178;2024-01-25T08:42:50;12.10;85.70
8736;DHT22;4404;49.308;12.178;2024-01-25T08:44:52;12.20;85.80
8736;DHT22;4404;49.308;12.178;2024-01-25T08:46:54;12.10;85.70
8736;DHT22;4404;49.308;12.178;2024-01-25T08:48:56;12.10;85.70
8736;DHT22;4404;49.308;12.178;2024-01-25T08:50:59;12.10;85.70
8736;DHT22;4404;49.308;12.178;2024-01-25T08:53:00;12.10;85.70
8736;DHT22;4404;49.308;12.178;2024-01-25T08:55:04;12.20;85.70
8736;DHT22;4404;49.308;12.178;2024-01-25T08:57:06;12.10;85.70
8736;DHT22;4404;49.308;12.178;2024-01-25T08:59:09;12.20;85.70
8736;DHT22;4404;49.308;12.178;2024-01-25T09:01:11;12.20;85.80
8736;DHT22;4404;49.308;12.178;2024-01-25T09:03:13;12.20;85.80
8736;DHT22;4404;49.308;12.178;2024-01-25T09:05:15;12.20;85.80
8736;DHT22;4404;49.308;12.178;2024-01-25T09:07:17;12.20;85.70
8736;DHT22;4404;49.308;12.178;2024-01-25T09:09:23;12.20;85.80
8736;DHT22;4404;49.308;12.178;2024-01-25T09:11:26;12.30;85.50
8736;DHT22;4404;49.308;12.178;2024-01-25T09:13:29;12.30;85.30
8736;DHT22;4404;49.308;12.178;2024-01-25T09:15:32;12.30;84.80
8736;DHT22;4404;49.308;12.178;2024-01-25T09:17:34;12.30;84.30
8736;DHT22;4404;49.308;12.178;2024-01-25T09:19:36;12.40;84.00
8736;DHT22;4404;49.308;12.178;2024-01-25T09:21:38;12.40;83.80
8736;DHT22;4404;49.308;12.178;2024-01-25T09:23:41;12.50;83.70
8736;DHT22;4404;49.308;12.178;2024-01-25T09:25:43;12.50;83.60
8736;DHT22;4404;49.308;12.178;2024-01-25T09:27:46;12.50;83.40
8736;DHT22;4404;49.308;12.178;2024-01-25T09:29:48;12.70;83.50
8736;DHT22;4404;49.308;12.178;2024-01-25T09:31:50;12.50;83.30
8736;DHT22;4404;49.308;12.178;2024-01-25T09:33:51;12.50;83.20
8736;DHT22;4404;49.308;12.178;2024-01-25T09:35:53;12.60;83.10
8736;DHT22;4404;49.308;12.178;2024-01-25T09:37:55;12.50;83.00
8736;DHT22;4404;49.308;12.178;2024-01-25T09:39:58;12.60;83.10
8736;DHT22;4404;49.308;12.178;2024-01-25T09:42:00;12.60;83.10
8736;DHT22;4404;49.308;12.178;2024-01-25T09:44:07;12.60;83.40
8736;DHT22;4404;49.308;12.178;2024-01-25T09:46:13;12.60;83.30
8736;DHT22;4404;49.308;12.178;2024-01-25T09:48:16;12.60;83.00
8736;DHT22;4404;49.308;12.178;2024-01-25T09:50:18;12.60;82.80
8736;DHT22;4404;49.308;12.178;2024-01-25T09:52:22;12.60;82.70
8736;DHT22;4404;49.308;12.178;2024-01-25T09:54:26;12.60;82.60
8736;DHT22;4404;49.308;12.178;2024-01-25T09:56:30;12.60;82.70
8736;DHT22;4404;49.308;12.178;2024-01-25T09:58:37;12.60;82.70
8736;DHT22;4404;49.308;12.178;2024-01-25T10:00:42;12.60;82.70
8736;DHT22;4404;49.308;12.178;2024-01-25T10:02:43;12.70;82.70
8736;DHT22;4404;49.308;12.178;2024-01-25T10:04:49;12.70;82.60
8736;DHT22;4404;49.308;12.178;2024-01-25T10:06:56;12.60;82.40
8736;DHT22;4404;49.308;12.178;2024-01-25T10:08:59;12.70;82.40
8736;DHT22;4404;49.308;12.178;2024-01-25T10:11:00;12.70;82.50
8736;DHT22;4404;49.308;12.178;2024-01-25T10:13:03;12.70;82.50
8736;DHT22;4404;49.308;12.178;2024-01-25T10:15:06;12.70;82.40
8736;DHT22;4404;49.308;12.178;2024-01-25T10:17:10;12.70;82.30
8736;DHT22;4404;49.308;12.178;2024-01-25T10:19:12;12.70;82.30
8736;DHT22;4404;49.308;12.178;2024-01-25T10:21:15;12.70;82.40
8736;DHT22;4404;49.308;12.178;2024-01-25T10:23:17;12.70;82.30
8736;DHT22;4404;49.308;12.178;2024-01-25T10:25:19;12.70;82.10
8736;DHT22;4404;49.308;12.178;2024-01-25T10:27:22;12.70;82.00
8736;DHT22;4404;49.308;12.178;2024-01-25T10:29:25;12.70;82.00
8736;DHT22;4404;49.308;12.178;2024-01-25T10:31:27;12.70;82.00
8736;DHT22;4404;49.308;12.178;2024-01-25T10:33:32;12.70;82.00
8736;DHT22;4404;49.308;12.178;2024-01-25T10:35:35;12.70;81.90
8736;DHT22;4404;49.308;12.178;2024-01-25T10:37:38;12.70;81.80
8736;DHT22;4404;49.308;12.178;2024-01-25T10:39:41;12.70;81.80
8736;DHT22;4404;49.308;12.178;2024-01-25T10:41:45;12.70;81.80
8736;DHT22;4404;49.308;12.178;2024-01-25T10:43:50;12.70;81.80
8736;DHT22;4404;49.308;12.178;2024-01-25T10:45:52;12.80;81.80
8736;DHT22;4404;49.308;12.178;2024-01-25T10:47:56;12.80;81.70
8736;DHT22;4404;49.308;12.178;2024-01-25T10:50:00;12.80;82.30
8736;DHT22;4404;49.308;12.178;2024-01-25T10:52:04;12.80;81.70
8736;DHT22;4404;49.308;12.178;2024-01-25T10:54:07;12.80;81.70
8736;DHT22;4404;49.308;12.178;2024-01-25T10:56:09;12.80;81.60
8736;DHT22;4404;49.308;12.178;2024-01-25T10:58:13;12.80;81.50
8736;DHT22;4404;49.308;12.178;2024-01-25T11:00:15;12.80;81.50
8736;DHT22;4404;49.308;12.178;2024-01-25T11:02:18;12.80;81.50
8736;DHT22;4404;49.308;12.178;2024-01-25T11:04:20;12.80;81.40
8736;DHT22;4404;49.308;12.178;2024-01-25T11:06:27;12.80;81.20
8736;DHT22;4404;49.308;12.178;2024-01-25T11:08:29;12.80;81.80
8736;DHT22;4404;49.308;12.178;2024-01-25T11:10:36;12.80;81.00
8736;DHT22;4404;49.308;12.178;2024-01-25T11:12:48;12.90;81.00
8736;DHT22;4404;49.308;12.178;2024-01-25T11:14:56;12.80;80.90
8736;DHT22;4404;49.308;12.178;2024-01-25T11:16:58;12.80;80.90
8736;DHT22;4404;49.308;12.178;2024-01-25T11:19:00;12.80;80.80
8736;DHT22;4404;49.308;12.178;2024-01-25T11:21:05;12.80;80.80
8736;DHT22;4404;49.308;12.178;2024-01-25T11:23:09;12.80;80.80
8736;DHT22;4404;49.308;12.178;2024-01-25T11:25:13;13.00;81.00
8736;DHT22;4404;49.308;12.178;2024-01-25T11:27:17;12.80;80.80
8736;DHT22;4404;49.308;12.178;2024-01-25T11:29:21;12.80;80.80
8736;DHT22;4404;49.308;12.178;2024-01-25T11:31:24;12.80;80.90
8736;DHT22;4404;49.308;12.178;2024-01-25T11:33:25;12.90;80.90
8736;DHT22;4404;49.308;12.178;2024-01-25T11:35:27;12.90;80.90
8736;DHT22;4404;49.308;12.178;2024-01-25T11:37:28;12.90;80.90
8736;DHT22;4404;49.308;12.178;2024-01-25T11:39:32;12.80;80.70
8736;DHT22;4404;49.308;12.178;2024-01-25T11:41:34;12.90;80.90
8736;DHT22;4404;49.308;12.178;2024-01-25T11:43:37;13.00;81.00
8736;DHT22;4404;49.308;12.178;2024-01-25T11:45:39;12.80;80.90
8736;DHT22;4404;49.308;12.178;2024-01-25T11:47:44;12.80;80.80
8736;DHT22;4404;49.308;12.178;2024-01-25T11:49:46;12.80;80.80
8736;DHT22;4404;49.308;12.178;2024-01-25T11:51:48;12.80;80.80
8736;DHT22;4404;49.308;12.178;2024-01-25T11:53:50;12.80;80.60
8736;DHT22;4404;49.308;12.178;2024-01-25T11:55:55;12.80;80.70
8736;DHT22;4404;49.308;12.178;2024-01-25T11:57:57;12.80;80.80
8736;DHT22;4404;49.308;12.178;2024-01-25T11:59:59;12.80;80.80
8736;DHT22;4404;49.308;12.178;2024-01-25T12:02:02;13.10;81.70
8736;DHT22;4404;49.308;12.178;2024-01-25T12:04:04;12.80;80.70
8736;DHT22;4404;49.308;12.178;2024-01-25T12:06:05;12.80;80.80
8736;DHT22;4404;49.308;12.178;2024-01-25T12:08:13;12.80;80.70
8736;DHT22;4404;49.308;12.178;2024-01-25T12:10:16;12.80;80.60
8736;DHT22;4404;49.308;12.178;2024-01-25T12:12:20;12.80;80.40
8736;DHT22;4404;49.308;12.178;2024-01-25T12:14:21;12.80;81.10
8736;DHT22;4404;49.308;12.178;2024-01-25T12:16:25;12.90;80.60
8736;DHT22;4404;49.308;12.178;2024-01-25T12:18:28;12.80;80.40
8736;DHT22;4404;49.308;12.178;2024-01-25T12:20:30;12.80;80.40
8736;DHT22;4404;49.308;12.178;2024-01-25T12:22:32;12.80;80.30
8736;DHT22;4404;49.308;12.178;2024-01-25T12:24:35;12.80;80.30
8736;DHT22;4404;49.308;12.178;2024-01-25T12:26:37;12.80;80.30
8736;DHT22;4404;49.308;12.178;2024-01-25T12:28:41;12.80;80.30
8736;DHT22;4404;49.308;12.178;2024-01-25T12:30:43;12.80;80.20
8736;DHT22;4404;49.308;12.178;2024-01-25T12:32:48;12.80;80.20
8736;DHT22;4404;49.308;12.178;2024-01-25T12:34:54;12.80;80.20
8736;DHT22;4404;49.308;12.178;2024-01-25T12:36:56;12.80;80.20
8736;DHT22;4404;49.308;12.178;2024-01-25T12:38:59;12.80;80.20
8736;DHT22;4404;49.308;12.178;2024-01-25T12:41:03;12.90;80.10
8736;DHT22;4404;49.308;12.178;2024-01-25T12:43:05;12.80;80.00
8736;DHT22;4404;49.308;12.178;2024-01-25T12:45:10;12.80;80.10
8736;DHT22;4404;49.308;12.178;2024-01-25T12:47:12;12.80;80.30
8736;DHT22;4404;49.308;12.178;2024-01-25T12:49:14;12.80;80.20
8736;DHT22;4404;49.308;12.178;2024-01-25T12:51:15;12.80;80.50
8736;DHT22;4404;49.308;12.178;2024-01-25T12:53:18;12.80;80.40
8736;DHT22;4404;49.308;12.178;2024-01-25T12:55:20;12.80;80.30
8736;DHT22;4404;49.308;12.178;2024-01-25T12:57:22;12.80;80.20
8736;DHT22;4404;49.308;12.178;2024-01-25T12:59:24;12.80;80.30
8736;DHT22;4404;49.308;12.178;2024-01-25T13:01:26;12.80;80.30
8736;DHT22;4404;49.308;12.178;2024-01-25T13:03:28;12.70;80.30
8736;DHT22;4404;49.308;12.178;2024-01-25T13:05:30;12.80;80.10